createdAt,value
2018-12-24T00:02:55.568Z,2.05
2018-12-24T00:06:02.456Z,1.30
2018-12-24T00:09:09.124Z,1.50
2018-12-24T00:12:16.064Z,1.40
2018-12-24T00:15:22.796Z,1.30
2018-12-24T00:18:29.564Z,1.50
2018-12-24T00:21:36.267Z,1.40
2018-12-24T00:24:43.269Z,1.60
2018-12-24T00:27:50.210Z,1.60
2018-12-24T00:30:57.106Z,1.60
2018-12-24T00:34:04.275Z,1.50
2018-12-24T00:37:10.933Z,1.60
2018-12-24T00:40:17.856Z,1.50
2018-12-24T00:43:24.658Z,1.43
2018-12-24T00:46:31.466Z,2.20
2018-12-24T00:49:38.125Z,2.07
2018-12-24T00:52:47.827Z,1.80
2018-12-24T00:55:54.799Z,1.70
2018-12-24T00:59:01.945Z,1.65
2018-12-24T01:02:08.890Z,1.60
2018-12-24T01:05:15.821Z,2.90
2018-12-24T01:08:22.738Z,1.93
2018-12-24T01:11:29.665Z,1.70
2018-12-24T01:14:36.776Z,1.40
2018-12-24T01:17:45.504Z,1.85
2018-12-24T01:20:52.473Z,1.40
2018-12-24T01:23:59.197Z,1.80
2018-12-24T01:27:05.919Z,2.00
2018-12-24T01:30:12.918Z,1.87
2018-12-24T01:33:19.888Z,1.70
2018-12-24T01:36:28.685Z,1.40
2018-12-24T01:39:35.551Z,2.00
2018-12-24T01:42:44.339Z,1.50
2018-12-24T01:45:51.480Z,1.40
2018-12-24T01:48:58.448Z,1.50
2018-12-24T01:52:05.316Z,1.70
2018-12-24T01:55:12.267Z,1.70
2018-12-24T01:58:19.129Z,1.70
2018-12-24T02:01:26.329Z,1.60
2018-12-24T02:04:33.016Z,1.60
2018-12-24T02:07:39.994Z,1.60
2018-12-24T02:10:46.940Z,1.77
2018-12-24T02:13:53.854Z,1.50
2018-12-24T02:17:00.748Z,1.63
2018-12-24T02:20:07.683Z,1.80
2018-12-24T02:23:14.652Z,1.65
2018-12-24T02:26:21.402Z,1.80
2018-12-24T02:29:28.371Z,1.57
2018-12-24T02:32:35.035Z,1.80
2018-12-24T02:35:45.073Z,1.70
2018-12-24T02:38:52.411Z,1.90
2018-12-24T02:41:59.431Z,1.70
2018-12-24T02:45:06.156Z,1.50
2018-12-24T02:48:12.815Z,1.80
2018-12-24T02:51:19.818Z,1.60
2018-12-24T02:54:26.684Z,1.50
2018-12-24T02:57:33.613Z,1.87
2018-12-24T03:00:42.003Z,1.72
2018-12-24T03:03:49.000Z,1.90
2018-12-24T03:06:55.940Z,1.70
2018-12-24T03:10:02.747Z,1.80
2018-12-24T03:13:09.463Z,1.90
2018-12-24T03:16:16.695Z,2.10
2018-12-24T03:19:23.621Z,1.40
2018-12-24T03:22:32.245Z,1.90
2018-12-24T03:25:39.491Z,1.70
2018-12-24T03:28:46.419Z,1.70
2018-12-24T03:31:53.102Z,1.70
2018-12-24T03:34:59.868Z,1.80
2018-12-24T03:38:07.054Z,2.02
2018-12-24T03:41:14.085Z,1.90
2018-12-24T03:44:21.142Z,2.30
2018-12-24T03:47:28.434Z,2.37
2018-12-24T03:50:35.318Z,1.50
2018-12-24T03:53:44.016Z,1.80
2018-12-24T03:56:50.902Z,2.33
2018-12-24T03:59:57.930Z,2.57
2018-12-24T04:03:04.658Z,2.90
2018-12-24T04:06:11.873Z,2.30
2018-12-24T04:09:18.583Z,3.60
2018-12-24T04:12:25.592Z,3.90
2018-12-24T04:15:32.498Z,2.60
2018-12-24T04:18:39.596Z,2.33
2018-12-24T04:21:46.562Z,2.40
2018-12-24T04:24:53.543Z,2.20
2018-12-24T04:28:00.196Z,2.20
2018-12-24T04:31:06.908Z,2.27
2018-12-24T04:34:13.848Z,2.40
2018-12-24T04:37:20.778Z,2.30
2018-12-24T04:40:27.666Z,2.20
2018-12-24T04:43:35.108Z,3.20
2018-12-24T04:46:45.154Z,3.00
2018-12-24T04:49:52.071Z,2.23
2018-12-24T04:52:58.855Z,2.33
2018-12-24T04:56:05.552Z,2.70
2018-12-24T04:59:12.668Z,2.42
2018-12-24T05:02:19.636Z,2.20
2018-12-24T05:05:26.532Z,1.80
2018-12-24T05:08:33.586Z,1.60
2018-12-24T05:11:40.286Z,2.53
2018-12-24T05:14:47.499Z,1.40
2018-12-24T05:17:54.422Z,1.80
2018-12-24T05:21:01.359Z,2.50
2018-12-24T05:24:08.239Z,2.00
2018-12-24T05:27:15.206Z,2.10
2018-12-24T05:30:22.365Z,1.60
2018-12-24T05:33:29.352Z,1.43
2018-12-24T05:36:36.239Z,1.90
2018-12-24T05:39:43.221Z,2.10
2018-12-24T05:42:50.403Z,1.60
2018-12-24T05:45:57.788Z,1.50
2018-12-24T05:49:04.936Z,1.90
2018-12-24T05:52:12.078Z,1.50
2018-12-24T05:55:18.995Z,1.60
2018-12-24T05:58:25.908Z,1.90
2018-12-24T06:01:32.631Z,1.80
2018-12-24T06:04:39.816Z,1.87
2018-12-24T06:07:48.109Z,1.80
2018-12-24T06:10:55.345Z,2.05
2018-12-24T06:14:02.036Z,1.70
2018-12-24T06:17:09.037Z,2.65
2018-12-24T06:20:15.934Z,2.30
2018-12-24T06:23:22.887Z,2.10
2018-12-24T06:26:29.781Z,2.60
2018-12-24T06:29:37.069Z,2.90
2018-12-24T06:32:46.366Z,2.10
2018-12-24T06:35:53.523Z,2.30
2018-12-24T06:39:00.451Z,2.00
2018-12-24T06:42:07.471Z,2.17
2018-12-24T06:45:14.347Z,2.00
2018-12-24T06:48:21.785Z,2.23
2018-12-24T06:51:28.668Z,1.90
2018-12-24T06:54:35.600Z,1.80
2018-12-24T06:57:44.692Z,1.90
2018-12-24T07:00:51.693Z,1.80
2018-12-24T07:03:58.671Z,1.90
2018-12-24T07:07:07.725Z,1.80
2018-12-24T07:10:14.707Z,2.20
2018-12-24T07:13:21.903Z,2.00
2018-12-24T07:16:28.890Z,2.50
2018-12-24T07:19:35.811Z,2.10
2018-12-24T07:22:45.082Z,2.83
2018-12-24T07:25:52.247Z,2.60
2018-12-24T07:29:01.963Z,2.60
2018-12-24T07:32:08.670Z,2.60
2018-12-24T07:35:15.348Z,2.67
2018-12-24T07:38:22.313Z,3.93
2018-12-24T07:41:28.996Z,3.73
2018-12-24T07:44:36.023Z,5.00
2018-12-24T07:47:45.683Z,4.60
2018-12-24T07:50:52.743Z,4.60
2018-12-24T07:53:59.664Z,4.23
2018-12-24T07:57:06.608Z,4.70
2018-12-24T08:00:13.249Z,5.30
2018-12-24T08:03:20.136Z,3.50
2018-12-24T08:06:27.278Z,5.08
2018-12-24T08:09:34.248Z,4.80
2018-12-24T08:12:41.221Z,4.70
2018-12-24T08:15:48.132Z,5.10
2018-12-24T08:18:55.041Z,6.10
2018-12-24T08:22:01.831Z,5.20
2018-12-24T08:25:08.951Z,4.58
2018-12-24T08:28:15.952Z,5.67
2018-12-24T08:31:23.996Z,5.57
2018-12-24T08:34:31.400Z,4.90
2018-12-24T08:37:38.111Z,7.93
2018-12-24T08:40:44.994Z,6.23
2018-12-24T08:43:51.820Z,6.70
2018-12-24T08:46:58.744Z,7.40
2018-12-24T08:50:05.983Z,7.20
2018-12-24T08:53:13.347Z,8.48
2018-12-24T08:56:20.222Z,6.03
2018-12-24T08:59:27.246Z,6.30
2018-12-24T09:02:34.685Z,6.87
2018-12-24T09:05:42.783Z,6.40
2018-12-24T09:08:49.434Z,5.30
2018-12-24T09:11:56.686Z,6.28
2018-12-24T09:15:03.632Z,5.80
2018-12-24T09:18:10.729Z,6.83
2018-12-24T09:21:17.660Z,5.47
2018-12-24T09:24:24.822Z,6.25
2018-12-24T09:27:31.789Z,6.40
2018-12-24T09:30:44.870Z,4.83
2018-12-24T09:33:52.488Z,6.00
2018-12-24T09:36:59.854Z,7.63
2018-12-24T09:40:08.579Z,6.10
2018-12-24T09:43:15.738Z,6.67
2018-12-24T09:46:22.647Z,6.77
2018-12-24T09:49:29.705Z,5.43
2018-12-24T09:52:45.776Z,5.73
2018-12-24T09:55:53.089Z,5.63
2018-12-24T09:58:59.976Z,5.53
2018-12-24T10:02:07.326Z,5.58
2018-12-24T10:05:18.196Z,4.60
2018-12-24T10:08:26.177Z,6.30
2018-12-24T10:11:33.089Z,4.10
2018-12-24T10:14:40.295Z,5.70
2018-12-24T10:17:49.956Z,7.40
2018-12-24T10:20:56.980Z,4.08
2018-12-24T10:24:04.190Z,3.73
2018-12-24T10:27:11.423Z,4.70
2018-12-24T10:30:18.445Z,3.60
2018-12-24T10:33:25.452Z,4.20
2018-12-24T10:36:32.566Z,3.10
2018-12-24T10:39:39.750Z,9.67
2018-12-24T10:42:48.384Z,3.30
2018-12-24T10:45:56.900Z,2.57
2018-12-24T10:49:10.305Z,2.58
2018-12-24T10:52:18.117Z,3.00
2018-12-24T10:55:25.305Z,2.98
2018-12-24T10:58:32.441Z,3.30
2018-12-24T11:01:39.471Z,3.07
2018-12-24T11:04:48.053Z,3.00
2018-12-24T11:07:54.927Z,2.80
2018-12-24T11:11:02.742Z,5.15
2018-12-24T11:14:09.893Z,2.42
2018-12-24T11:17:17.183Z,2.60
2018-12-24T11:20:24.396Z,2.87
2018-12-24T11:23:31.373Z,3.93
2018-12-24T11:26:38.281Z,4.50
2018-12-24T11:29:45.405Z,3.03
2018-12-24T11:32:52.073Z,3.23
2018-12-24T11:35:59.312Z,4.30
2018-12-24T11:39:06.963Z,3.20
2018-12-24T11:42:14.057Z,2.67
2018-12-24T11:45:21.057Z,3.27
2018-12-24T11:48:28.043Z,2.80
2018-12-24T11:51:35.120Z,3.30
2018-12-24T11:54:42.057Z,2.60
2018-12-24T11:57:48.944Z,3.13
2018-12-24T12:00:56.044Z,3.27
2018-12-24T12:04:03.180Z,3.20
2018-12-24T12:07:10.325Z,2.63
2018-12-24T12:10:17.248Z,2.80
2018-12-24T12:13:24.174Z,2.50
2018-12-24T12:16:31.858Z,7.87
2018-12-24T12:19:39.101Z,3.33
2018-12-24T12:22:45.859Z,3.90
2018-12-24T12:25:52.605Z,3.37
2018-12-24T12:28:59.556Z,3.43
2018-12-24T12:32:06.486Z,3.80
2018-12-24T12:35:13.412Z,3.07
2018-12-24T12:38:20.425Z,3.50
2018-12-24T12:41:27.433Z,4.62
2018-12-24T12:44:34.543Z,4.62
2018-12-24T12:47:41.670Z,6.63
2018-12-24T12:50:48.375Z,5.70
2018-12-24T12:53:55.576Z,6.67
2018-12-24T12:57:02.317Z,5.90
2018-12-24T13:00:09.375Z,4.40
2018-12-24T13:03:17.089Z,4.57
2018-12-24T13:06:23.990Z,4.30
2018-12-24T13:09:31.031Z,4.00
2018-12-24T13:12:38.032Z,2.92
2018-12-24T13:15:45.210Z,3.70
2018-12-24T13:18:52.103Z,3.70
2018-12-24T13:22:04.245Z,3.80
2018-12-24T13:25:08.003Z,5.50
2018-12-24T13:28:15.147Z,4.22
2018-12-24T13:31:22.029Z,4.13
2018-12-24T13:34:28.967Z,5.13
2018-12-24T13:37:36.082Z,5.28
2018-12-24T13:40:43.144Z,4.20
2018-12-24T13:43:50.033Z,3.03
2018-12-24T13:46:56.956Z,3.67
2018-12-24T13:50:04.165Z,4.22
2018-12-24T13:53:11.100Z,4.73
2018-12-24T13:56:18.029Z,3.80
2018-12-24T13:59:26.066Z,4.00
2018-12-24T14:02:33.078Z,3.00
2018-12-24T14:05:40.483Z,3.25
2018-12-24T14:08:47.560Z,3.95
2018-12-24T14:11:54.585Z,5.27
2018-12-24T14:15:01.488Z,5.73
2018-12-24T14:18:08.644Z,4.07
2018-12-24T14:21:15.627Z,4.00
2018-12-24T14:24:22.356Z,3.80
2018-12-24T14:27:29.033Z,5.00
2018-12-24T14:30:36.007Z,4.20
2018-12-24T14:33:43.034Z,4.50
2018-12-24T14:36:50.512Z,5.05
2018-12-24T14:39:57.703Z,5.00
2018-12-24T14:43:04.719Z,3.70
2018-12-24T14:46:11.863Z,5.03
2018-12-24T14:49:18.785Z,3.73
2018-12-24T14:52:25.911Z,3.65
2018-12-24T14:55:32.666Z,3.70
2018-12-24T14:58:39.473Z,3.60
2018-12-24T15:01:46.618Z,4.47
2018-12-24T15:04:53.894Z,3.60
2018-12-24T15:08:00.892Z,5.97
2018-12-24T15:11:07.797Z,5.03
2018-12-24T15:14:15.088Z,5.45
2018-12-24T15:17:22.166Z,5.50
2018-12-24T15:20:29.671Z,3.10
2018-12-24T15:23:36.552Z,5.20
2018-12-24T15:26:45.839Z,4.50
2018-12-24T15:29:52.874Z,4.50
2018-12-24T15:33:00.035Z,3.73
2018-12-24T15:36:07.031Z,3.20
2018-12-24T15:39:13.991Z,3.13
2018-12-24T15:42:21.019Z,4.20
2018-12-24T15:45:28.202Z,3.90
2018-12-24T15:48:35.587Z,5.03
2018-12-24T15:51:46.316Z,5.05
2018-12-24T15:54:53.683Z,4.12
2018-12-24T15:58:00.738Z,5.47
2018-12-24T16:01:07.899Z,4.90
2018-12-24T16:04:15.074Z,3.30
2018-12-24T16:07:22.162Z,3.67
2018-12-24T16:10:29.487Z,3.85
2018-12-24T16:13:36.377Z,3.30
2018-12-24T16:16:50.816Z,8.58
2018-12-24T16:19:52.502Z,3.77
2018-12-24T16:22:59.289Z,4.20
2018-12-24T16:26:06.186Z,5.80
2018-12-24T16:29:13.585Z,4.27
2018-12-24T16:32:20.518Z,4.30
2018-12-24T16:35:27.515Z,3.63
2018-12-24T16:38:34.737Z,4.85
2018-12-24T16:41:41.793Z,4.10
2018-12-24T16:44:48.840Z,4.67
2018-12-24T16:47:55.858Z,5.03
2018-12-24T16:51:03.641Z,4.97
2018-12-24T16:54:12.314Z,4.37
2018-12-24T16:57:19.151Z,4.63
2018-12-24T17:00:26.292Z,4.50
2018-12-24T17:03:33.075Z,3.80
2018-12-24T17:06:40.767Z,4.80
2018-12-24T17:09:47.894Z,5.65
2018-12-24T17:12:54.993Z,3.40
2018-12-24T17:16:01.878Z,4.90
2018-12-24T17:19:09.197Z,4.87
2018-12-24T17:22:16.107Z,3.90
2018-12-24T17:25:29.204Z,4.23
2018-12-24T17:28:36.294Z,5.00
2018-12-24T17:31:44.098Z,5.10
2018-12-24T17:34:51.121Z,4.70
2018-12-24T17:37:58.336Z,4.90
2018-12-24T17:41:05.043Z,5.27
2018-12-24T17:44:12.271Z,4.60
2018-12-24T17:47:19.454Z,4.80
2018-12-24T17:50:26.548Z,5.47
2018-12-24T17:53:33.425Z,6.60
2018-12-24T17:56:40.722Z,5.45
2018-12-24T17:59:47.562Z,3.90
2018-12-24T18:02:54.485Z,4.97
2018-12-24T18:06:02.739Z,4.55
2018-12-24T18:09:10.216Z,6.47
2018-12-24T18:12:17.276Z,5.30
2018-12-24T18:15:24.333Z,7.80
2018-12-24T18:18:32.717Z,7.28
2018-12-24T18:21:42.309Z,7.57
2018-12-24T18:24:49.207Z,7.37
2018-12-24T18:27:56.135Z,5.73
2018-12-24T18:31:03.321Z,5.55
2018-12-24T18:34:10.235Z,5.10
2018-12-24T18:37:17.191Z,5.97
2018-12-24T18:40:24.111Z,5.57
2018-12-24T18:43:31.036Z,4.43
2018-12-24T18:46:38.993Z,5.08
2018-12-24T18:49:48.456Z,16.67
2018-12-24T18:52:55.425Z,9.83
2018-12-24T18:56:02.404Z,9.63
2018-12-24T18:59:09.308Z,9.50
2018-12-24T19:02:16.436Z,8.90
2018-12-24T19:05:24.929Z,15.90
2018-12-24T19:08:34.836Z,9.15
2018-12-24T19:11:43.200Z,8.20
2018-12-24T19:14:50.302Z,8.00
2018-12-24T19:17:57.308Z,6.60
2018-12-24T19:21:04.209Z,7.63
2018-12-24T19:24:11.428Z,7.42
2018-12-24T19:27:19.414Z,7.40
2018-12-24T19:30:26.378Z,7.53
2018-12-24T19:33:33.190Z,7.80
2018-12-24T19:36:40.298Z,6.28
2018-12-24T19:39:48.443Z,7.17
2018-12-24T19:42:55.721Z,7.15
2018-12-24T19:46:02.386Z,5.90
2018-12-24T19:49:09.299Z,5.47
2018-12-24T19:52:16.230Z,6.20
2018-12-24T19:55:23.173Z,6.43
2018-12-24T19:58:32.009Z,6.30
2018-12-24T20:01:39.188Z,9.10
2018-12-24T20:04:46.071Z,8.30
2018-12-24T20:07:53.184Z,10.80
2018-12-24T20:11:00.124Z,12.23
2018-12-24T20:14:07.115Z,6.33
2018-12-24T20:17:13.961Z,8.63
2018-12-24T20:20:21.571Z,7.40
2018-12-24T20:23:28.538Z,6.33
2018-12-24T20:26:35.584Z,7.30
2018-12-24T20:29:42.706Z,6.83
2018-12-24T20:32:49.651Z,5.90
2018-12-24T20:35:56.541Z,5.83
2018-12-24T20:39:05.477Z,6.10
2018-12-24T20:42:12.556Z,5.10
2018-12-24T20:45:19.571Z,6.17
2018-12-24T20:48:26.448Z,5.60
2018-12-24T20:51:33.699Z,5.75
2018-12-24T20:54:40.640Z,10.80
2018-12-24T20:57:47.537Z,6.07
2018-12-24T21:00:54.815Z,6.15
2018-12-24T21:04:01.614Z,6.80
2018-12-24T21:07:08.673Z,6.67
2018-12-24T21:10:17.576Z,5.08
2018-12-24T21:13:24.735Z,7.92
2018-12-24T21:16:31.998Z,7.80
2018-12-24T21:19:38.979Z,4.80
2018-12-24T21:22:46.451Z,6.60
2018-12-24T21:25:53.484Z,6.10
2018-12-24T21:29:00.259Z,5.80
2018-12-24T21:32:06.988Z,5.60
2018-12-24T21:35:13.711Z,6.17
2018-12-24T21:38:20.396Z,5.30
2018-12-24T21:41:27.304Z,5.50
2018-12-24T21:44:34.241Z,5.80
2018-12-24T21:47:41.597Z,5.23
2018-12-24T21:50:48.274Z,6.97
2018-12-24T21:53:55.020Z,7.00
2018-12-24T21:57:01.913Z,4.73
2018-12-24T22:00:09.276Z,6.10
2018-12-24T22:03:19.703Z,8.60
2018-12-24T22:06:28.529Z,7.40
2018-12-24T22:09:35.535Z,4.60
2018-12-24T22:12:42.539Z,6.63
2018-12-24T22:15:49.525Z,5.77
2018-12-24T22:18:56.725Z,7.15
2018-12-24T22:22:03.464Z,7.70
2018-12-24T22:25:10.658Z,6.90
2018-12-24T22:28:17.804Z,5.87
2018-12-24T22:31:24.794Z,5.77
2018-12-24T22:34:31.892Z,7.03
2018-12-24T22:37:38.905Z,5.77
2018-12-24T22:40:46.290Z,4.12
2018-12-24T22:43:53.293Z,6.70
2018-12-24T22:47:00.459Z,5.00
2018-12-24T22:50:07.423Z,5.17
2018-12-24T22:53:15.445Z,6.07
2018-12-24T22:56:22.280Z,4.90
2018-12-24T22:59:29.304Z,5.72
2018-12-24T23:02:36.021Z,4.40
2018-12-24T23:05:45.464Z,5.30
2018-12-24T23:08:52.366Z,4.83
2018-12-24T23:11:59.344Z,4.60
2018-12-24T23:15:06.743Z,5.20
2018-12-24T23:18:13.479Z,4.60
2018-12-24T23:21:21.107Z,5.25
2018-12-24T23:24:27.986Z,4.47
2018-12-24T23:27:35.427Z,5.42
2018-12-24T23:30:43.390Z,5.43
2018-12-24T23:33:50.340Z,8.20
2018-12-24T23:36:57.890Z,6.28
2018-12-24T23:40:05.746Z,5.93
2018-12-24T23:43:13.284Z,6.47
2018-12-24T23:46:20.324Z,6.10
2018-12-24T23:49:27.298Z,5.80
2018-12-24T23:52:35.288Z,5.67
2018-12-24T23:55:42.695Z,6.00
2018-12-24T23:58:49.701Z,5.45
